sensor_id;sensor_type;location;lat;lon;timestamp;temperature;humidity
16301;DHT22;8258;51.020;4.248;2023-09-19T00:01:35;14.40;99.90
16301;DHT22;8258;51.020;4.248;2023-09-19T00:04:03;14.40;99.90
16301;DHT22;8258;51.020;4.248;2023-09-19T00:06:35;14.50;99.90
16301;DHT22;8258;51.020;4.248;2023-09-19T00:09:02;14.50;99.90
16301;DHT22;8258;51.020;4.248;2023-09-19T00:11:30;14.50;99.90
16301;DHT22;8258;51.020;4.248;2023-09-19T00:13:57;14.50;99.90
16301;DHT22;8258;51.020;4.248;2023-09-19T00:16:25;14.50;99.90
16301;DHT22;8258;51.020;4.248;2023-09-19T00:18:52;14.50;99.90
16301;DHT22;8258;51.020;4.248;2023-09-19T00:21:21;14.50;99.90
16301;DHT22;8258;51.020;4.248;2023-09-19T00:23:48;14.50;99.90
16301;DHT22;8258;51.020;4.248;2023-09-19T00:26:17;14.40;99.90
16301;DHT22;8258;51.020;4.248;2023-09-19T00:28:44;14.40;99.90
16301;DHT22;8258;51.020;4.248;2023-09-19T00:31:11;14.40;99.90
16301;DHT22;8258;51.020;4.248;2023-09-19T00:33:38;14.40;99.90
16301;DHT22;8258;51.020;4.248;2023-09-19T00:36:05;14.40;99.90
16301;DHT22;8258;51.020;4.248;2023-09-19T00:38:33;14.30;99.90
16301;DHT22;8258;51.020;4.248;2023-09-19T00:41:00;14.30;99.90
16301;DHT22;8258;51.020;4.248;2023-09-19T00:43:28;14.30;99.90
16301;DHT22;8258;51.020;4.248;2023-09-19T00:46:00;14.20;99.90
16301;DHT22;8258;51.020;4.248;2023-09-19T00:48:28;14.20;99.90
16301;DHT22;8258;51.020;4.248;2023-09-19T00:50:57;14.20;99.90
16301;DHT22;8258;51.020;4.248;2023-09-19T00:53:26;14.20;99.90
16301;DHT22;8258;51.020;4.248;2023-09-19T00:55:54;14.20;99.90
16301;DHT22;8258;51.020;4.248;2023-09-19T00:58:21;14.10;99.90
16301;DHT22;8258;51.020;4.248;2023-09-19T01:00:49;14.10;99.90
16301;DHT22;8258;51.020;4.248;2023-09-19T01:03:17;14.10;99.90
16301;DHT22;8258;51.020;4.248;2023-09-19T01:05:44;14.10;99.90
16301;DHT22;8258;51.020;4.248;2023-09-19T01:08:11;14.10;99.90
16301;DHT22;8258;51.020;4.248;2023-09-19T01:10:52;14.10;99.90
16301;DHT22;8258;51.020;4.248;2023-09-19T01:13:29;14.10;99.90
16301;DHT22;8258;51.020;4.248;2023-09-19T01:16:03;14.10;99.90
16301;DHT22;8258;51.020;4.248;2023-09-19T01:18:40;14.10;99.90
16301;DHT22;8258;51.020;4.248;2023-09-19T01:21:17;14.10;99.90
16301;DHT22;8258;51.020;4.248;2023-09-19T01:24:12;14.10;99.90
16301;DHT22;8258;51.020;4.248;2023-09-19T01:27:02;14.10;99.90
16301;DHT22;8258;51.020;4.248;2023-09-19T01:29:39;14.10;99.90
16301;DHT22;8258;51.020;4.248;2023-09-19T01:32:09;14.10;99.90
16301;DHT22;8258;51.020;4.248;2023-09-19T01:34:46;14.10;99.90
16301;DHT22;8258;51.020;4.248;2023-09-19T01:37:19;14.10;99.90
16301;DHT22;8258;51.020;4.248;2023-09-19T01:39:53;14.10;99.90
16301;DHT22;8258;51.020;4.248;2023-09-19T01:42:27;14.10;99.90
16301;DHT22;8258;51.020;4.248;2023-09-19T01:45:03;14.10;99.90
16301;DHT22;8258;51.020;4.248;2023-09-19T01:47:37;14.10;99.90
16301;DHT22;8258;51.020;4.248;2023-09-19T01:50:13;14.10;99.90
16301;DHT22;8258;51.020;4.248;2023-09-19T01:52:47;14.10;99.90
16301;DHT22;8258;51.020;4.248;2023-09-19T01:55:16;14.20;99.90
16301;DHT22;8258;51.020;4.248;2023-09-19T01:57:51;14.30;99.90
16301;DHT22;8258;51.020;4.248;2023-09-19T02:00:22;14.30;99.90
16301;DHT22;8258;51.020;4.248;2023-09-19T02:02:51;14.30;99.90
16301;DHT22;8258;51.020;4.248;2023-09-19T02:05:22;14.30;99.90
16301;DHT22;8258;51.020;4.248;2023-09-19T02:07:51;14.40;99.90
16301;DHT22;8258;51.020;4.248;2023-09-19T02:10:19;14.40;99.90
16301;DHT22;8258;51.020;4.248;2023-09-19T02:12:46;14.40;99.90
16301;DHT22;8258;51.020;4.248;2023-09-19T02:15:13;14.40;99.90
16301;DHT22;8258;51.020;4.248;2023-09-19T02:17:41;14.50;99.90
16301;DHT22;8258;51.020;4.248;2023-09-19T02:20:11;14.50;99.90
16301;DHT22;8258;51.020;4.248;2023-09-19T02:22:41;14.50;99.90
16301;DHT22;8258;51.020;4.248;2023-09-19T02:25:08;14.60;99.90
16301;DHT22;8258;51.020;4.248;2023-09-19T02:27:35;14.60;99.90
16301;DHT22;8258;51.020;4.248;2023-09-19T02:30:03;14.70;99.90
16301;DHT22;8258;51.020;4.248;2023-09-19T02:32:31;14.70;99.90
16301;DHT22;8258;51.020;4.248;2023-09-19T02:35:02;14.70;99.90
16301;DHT22;8258;51.020;4.248;2023-09-19T02:37:32;14.80;99.90
16301;DHT22;8258;51.020;4.248;2023-09-19T02:40:00;14.70;99.90
16301;DHT22;8258;51.020;4.248;2023-09-19T02:42:44;14.70;99.90
16301;DHT22;8258;51.020;4.248;2023-09-19T02:45:15;14.60;99.90
16301;DHT22;8258;51.020;4.248;2023-09-19T02:47:44;14.60;99.90
16301;DHT22;8258;51.020;4.248;2023-09-19T02:50:11;14.50;99.90
16301;DHT22;8258;51.020;4.248;2023-09-19T02:52:41;14.50;99.90
16301;DHT22;8258;51.020;4.248;2023-09-19T02:55:10;14.50;99.90
16301;DHT22;8258;51.020;4.248;2023-09-19T02:57:37;14.40;99.90
16301;DHT22;8258;51.020;4.248;2023-09-19T03:00:07;14.40;99.90
16301;DHT22;8258;51.020;4.248;2023-09-19T03:02:35;14.40;99.90
16301;DHT22;8258;51.020;4.248;2023-09-19T03:05:04;14.40;99.90
16301;DHT22;8258;51.020;4.248;2023-09-19T03:07:31;14.40;99.90
16301;DHT22;8258;51.020;4.248;2023-09-19T03:10:00;14.50;99.90
16301;DHT22;8258;51.020;4.248;2023-09-19T03:12:28;14.50;99.90
16301;DHT22;8258;51.020;4.248;2023-09-19T03:14:55;14.50;99.90
16301;DHT22;8258;51.020;4.248;2023-09-19T03:17:22;14.50;99.90
16301;DHT22;8258;51.020;4.248;2023-09-19T03:19:49;14.60;99.90
16301;DHT22;8258;51.020;4.248;2023-09-19T03:22:16;14.60;99.90
16301;DHT22;8258;51.020;4.248;2023-09-19T03:24:43;14.70;99.90
16301;DHT22;8258;51.020;4.248;2023-09-19T03:27:13;14.70;99.90
16301;DHT22;8258;51.020;4.248;2023-09-19T03:29:41;14.70;99.90
16301;DHT22;8258;51.020;4.248;2023-09-19T03:32:08;14.70;99.90
16301;DHT22;8258;51.020;4.248;2023-09-19T03:34:37;14.70;99.90
16301;DHT22;8258;51.020;4.248;2023-09-19T03:37:08;14.70;99.90
16301;DHT22;8258;51.020;4.248;2023-09-19T03:39:35;14.70;99.90
16301;DHT22;8258;51.020;4.248;2023-09-19T03:42:03;14.70;99.90
16301;DHT22;8258;51.020;4.248;2023-09-19T03:44:34;14.70;99.90
16301;DHT22;8258;51.020;4.248;2023-09-19T03:47:00;14.40;99.90
16301;DHT22;8258;51.020;4.248;2023-09-19T03:49:30;14.20;99.90
16301;DHT22;8258;51.020;4.248;2023-09-19T03:51:57;14.00;99.90
16301;DHT22;8258;51.020;4.248;2023-09-19T03:54:24;13.80;99.90
16301;DHT22;8258;51.020;4.248;2023-09-19T03:56:51;13.70;99.90
16301;DHT22;8258;51.020;4.248;2023-09-19T03:59:18;13.60;99.90
16301;DHT22;8258;51.020;4.248;2023-09-19T04:01:47;13.50;99.90
16301;DHT22;8258;51.020;4.248;2023-09-19T04:04:15;13.50;99.90
16301;DHT22;8258;51.020;4.248;2023-09-19T04:06:44;13.50;99.90
16301;DHT22;8258;51.020;4.248;2023-09-19T04:09:11;13.50;99.90
16301;DHT22;8258;51.020;4.248;2023-09-19T04:11:38;13.50;99.90
16301;DHT22;8258;51.020;4.248;2023-09-19T04:14:05;13.40;99.90
16301;DHT22;8258;51.020;4.248;2023-09-19T04:16:32;13.40;99.90
16301;DHT22;8258;51.020;4.248;2023-09-19T04:19:01;13.50;99.90
16301;DHT22;8258;51.020;4.248;2023-09-19T04:21:29;13.50;99.90
16301;DHT22;8258;51.020;4.248;2023-09-19T04:23:56;13.50;99.90
16301;DHT22;8258;51.020;4.248;2023-09-19T04:26:23;13.50;99.90
16301;DHT22;8258;51.020;4.248;2023-09-19T04:28:51;13.50;99.90
16301;DHT22;8258;51.020;4.248;2023-09-19T04:31:18;13.40;99.90
16301;DHT22;8258;51.020;4.248;2023-09-19T04:33:47;13.40;99.90
16301;DHT22;8258;51.020;4.248;2023-09-19T04:36:15;13.40;99.90
16301;DHT22;8258;51.020;4.248;2023-09-19T04:38:42;13.40;99.90
16301;DHT22;8258;51.020;4.248;2023-09-19T04:41:09;13.40;99.90
16301;DHT22;8258;51.020;4.248;2023-09-19T04:43:36;13.40;99.90
16301;DHT22;8258;51.020;4.248;2023-09-19T04:46:03;13.30;99.90
16301;DHT22;8258;51.020;4.248;2023-09-19T04:48:32;13.30;99.90
16301;DHT22;8258;51.020;4.248;2023-09-19T04:51:00;13.30;99.90
16301;DHT22;8258;51.020;4.248;2023-09-19T04:53:28;13.30;99.90
16301;DHT22;8258;51.020;4.248;2023-09-19T04:55:55;13.30;99.90
16301;DHT22;8258;51.020;4.248;2023-09-19T04:58:23;13.30;99.90
16301;DHT22;8258;51.020;4.248;2023-09-19T05:00:50;13.30;99.90
16301;DHT22;8258;51.020;4.248;2023-09-19T05:03:17;13.30;99.90
16301;DHT22;8258;51.020;4.248;2023-09-19T05:05:46;13.30;99.90
16301;DHT22;8258;51.020;4.248;2023-09-19T05:08:13;13.30;99.90
16301;DHT22;8258;51.020;4.248;2023-09-19T05:10:42;13.30;99.90
16301;DHT22;8258;51.020;4.248;2023-09-19T05:13:09;13.30;99.90
16301;DHT22;8258;51.020;4.248;2023-09-19T05:15:37;13.30;99.90
16301;DHT22;8258;51.020;4.248;2023-09-19T05:18:04;13.40;99.90
16301;DHT22;8258;51.020;4.248;2023-09-19T05:20:32;13.40;99.90
16301;DHT22;8258;51.020;4.248;2023-09-19T05:23:03;13.40;99.90
16301;DHT22;8258;51.020;4.248;2023-09-19T05:25:34;13.50;99.90
16301;DHT22;8258;51.020;4.248;2023-09-19T05:28:04;13.40;99.90
16301;DHT22;8258;51.020;4.248;2023-09-19T05:30:32;13.50;99.90
16301;DHT22;8258;51.020;4.248;2023-09-19T05:32:59;13.50;99.90
16301;DHT22;8258;51.020;4.248;2023-09-19T05:35:26;13.50;99.90
16301;DHT22;8258;51.020;4.248;2023-09-19T05:37:54;13.50;99.90
16301;DHT22;8258;51.020;4.248;2023-09-19T05:40:21;13.60;99.90
16301;DHT22;8258;51.020;4.248;2023-09-19T05:42:49;13.60;99.90
16301;DHT22;8258;51.020;4.248;2023-09-19T05:45:18;13.60;99.90
16301;DHT22;8258;51.020;4.248;2023-09-19T05:47:47;13.70;99.90
16301;DHT22;8258;51.020;4.248;2023-09-19T05:50:16;13.80;99.90
16301;DHT22;8258;51.020;4.248;2023-09-19T05:52:51;13.80;99.90
16301;DHT22;8258;51.020;4.248;2023-09-19T05:55:18;13.90;99.90
16301;DHT22;8258;51.020;4.248;2023-09-19T05:57:49;13.90;99.90
16301;DHT22;8258;51.020;4.248;2023-09-19T06:00:18;13.90;99.90
16301;DHT22;8258;51.020;4.248;2023-09-19T06:02:50;14.00;99.90
16301;DHT22;8258;51.020;4.248;2023-09-19T06:05:17;14.00;99.90
16301;DHT22;8258;51.020;4.248;2023-09-19T06:07:44;14.00;99.90
16301;DHT22;8258;51.020;4.248;2023-09-19T06:10:12;14.10;99.90
16301;DHT22;8258;51.020;4.248;2023-09-19T06:12:40;14.10;99.90
16301;DHT22;8258;51.020;4.248;2023-09-19T06:15:10;14.20;99.90
16301;DHT22;8258;51.020;4.248;2023-09-19T06:17:42;14.30;99.90
16301;DHT22;8258;51.020;4.248;2023-09-19T06:20:10;14.30;99.90
16301;DHT22;8258;51.020;4.248;2023-09-19T06:22:40;14.40;99.90
16301;DHT22;8258;51.020;4.248;2023-09-19T06:25:09;14.50;99.90
16301;DHT22;8258;51.020;4.248;2023-09-19T06:27:37;14.60;99.90
16301;DHT22;8258;51.020;4.248;2023-09-19T06:30:09;14.60;99.90
16301;DHT22;8258;51.020;4.248;2023-09-19T06:32:37;14.70;99.90
16301;DHT22;8258;51.020;4.248;2023-09-19T06:35:06;14.80;99.90
16301;DHT22;8258;51.020;4.248;2023-09-19T06:37:34;14.90;99.90
16301;DHT22;8258;51.020;4.248;2023-09-19T06:40:05;14.80;99.90
16301;DHT22;8258;51.020;4.248;2023-09-19T06:42:32;14.80;99.90
16301;DHT22;8258;51.020;4.248;2023-09-19T06:44:59;14.90;99.90
16301;DHT22;8258;51.020;4.248;2023-09-19T06:47:26;14.90;99.90
16301;DHT22;8258;51.020;4.248;2023-09-19T06:49:53;14.80;99.90
16301;DHT22;8258;51.020;4.248;2023-09-19T06:52:21;14.90;99.90
16301;DHT22;8258;51.020;4.248;2023-09-19T06:54:48;14.90;99.90
16301;DHT22;8258;51.020;4.248;2023-09-19T06:57:16;15.00;99.90
16301;DHT22;8258;51.020;4.248;2023-09-19T06:59:42;15.10;99.90
16301;DHT22;8258;51.020;4.248;2023-09-19T07:02:10;15.10;99.90
16301;DHT22;8258;51.020;4.248;2023-09-19T07:04:38;15.00;99.90
16301;DHT22;8258;51.020;4.248;2023-09-19T07:07:06;15.10;99.90
16301;DHT22;8258;51.020;4.248;2023-09-19T07:09:35;15.40;99.90
16301;DHT22;8258;51.020;4.248;2023-09-19T07:12:03;15.60;99.90
16301;DHT22;8258;51.020;4.248;2023-09-19T07:14:30;15.80;99.90
16301;DHT22;8258;51.020;4.248;2023-09-19T07:16:57;16.00;99.90
16301;DHT22;8258;51.020;4.248;2023-09-19T07:19:25;16.40;99.90
16301;DHT22;8258;51.020;4.248;2023-09-19T07:21:53;16.40;99.90
16301;DHT22;8258;51.020;4.248;2023-09-19T07:24:20;16.40;99.90
16301;DHT22;8258;51.020;4.248;2023-09-19T07:26:51;16.60;99.90
16301;DHT22;8258;51.020;4.248;2023-09-19T07:29:17;16.80;99.90
16301;DHT22;8258;51.020;4.248;2023-09-19T07:31:44;17.10;99.90
16301;DHT22;8258;51.020;4.248;2023-09-19T07:34:13;17.20;99.90
16301;DHT22;8258;51.020;4.248;2023-09-19T07:36:40;17.50;99.90
16301;DHT22;8258;51.020;4.248;2023-09-19T07:39:08;17.80;99.90
16301;DHT22;8258;51.020;4.248;2023-09-19T07:41:35;17.90;99.90
16301;DHT22;8258;51.020;4.248;2023-09-19T07:44:03;17.80;99.90
16301;DHT22;8258;51.020;4.248;2023-09-19T07:46:31;18.10;99.90
16301;DHT22;8258;51.020;4.248;2023-09-19T07:48:58;18.10;99.90
16301;DHT22;8258;51.020;4.248;2023-09-19T07:51:25;18.20;99.90
16301;DHT22;8258;51.020;4.248;2023-09-19T07:53:52;18.40;99.90
16301;DHT22;8258;51.020;4.248;2023-09-19T07:56:20;18.30;99.90
16301;DHT22;8258;51.020;4.248;2023-09-19T07:58:48;18.20;99.90
16301;DHT22;8258;51.020;4.248;2023-09-19T08:01:16;18.30;99.90
16301;DHT22;8258;51.020;4.248;2023-09-19T08:03:43;18.40;99.90
16301;DHT22;8258;51.020;4.248;2023-09-19T08:06:10;18.60;99.90
16301;DHT22;8258;51.020;4.248;2023-09-19T08:08:39;18.70;99.90
16301;DHT22;8258;51.020;4.248;2023-09-19T08:11:06;18.70;99.90
16301;DHT22;8258;51.020;4.248;2023-09-19T08:13:38;18.70;99.90
16301;DHT22;8258;51.020;4.248;2023-09-19T08:16:09;18.50;99.90
16301;DHT22;8258;51.020;4.248;2023-09-19T08:18:37;19.00;99.90
16301;DHT22;8258;51.020;4.248;2023-09-19T08:21:05;19.30;99.90
16301;DHT22;8258;51.020;4.248;2023-09-19T08:23:33;19.70;99.90
16301;DHT22;8258;51.020;4.248;2023-09-19T08:26:00;19.70;99.90
16301;DHT22;8258;51.020;4.248;2023-09-19T08:28:32;19.60;99.90
16301;DHT22;8258;51.020;4.248;2023-09-19T08:31:02;19.40;99.90
16301;DHT22;8258;51.020;4.248;2023-09-19T08:33:31;19.50;99.90
16301;DHT22;8258;51.020;4.248;2023-09-19T08:35:59;19.90;99.90
16301;DHT22;8258;51.020;4.248;2023-09-19T08:38:26;20.10;99.90
16301;DHT22;8258;51.020;4.248;2023-09-19T08:40:57;19.80;99.90
16301;DHT22;8258;51.020;4.248;2023-09-19T08:43:25;19.90;99.90
16301;DHT22;8258;51.020;4.248;2023-09-19T08:46:03;20.00;99.90
16301;DHT22;8258;51.020;4.248;2023-09-19T08:48:34;20.30;99.90
16301;DHT22;8258;51.020;4.248;2023-09-19T08:51:07;20.30;99.90
16301;DHT22;8258;51.020;4.248;2023-09-19T08:53:41;20.10;99.90
16301;DHT22;8258;51.020;4.248;2023-09-19T08:56:11;20.40;99.90
16301;DHT22;8258;51.020;4.248;2023-09-19T08:58:44;20.50;99.90
16301;DHT22;8258;51.020;4.248;2023-09-19T09:01:15;21.00;99.90
16301;DHT22;8258;51.020;4.248;2023-09-19T09:03:43;21.10;99.90
16301;DHT22;8258;51.020;4.248;2023-09-19T09:06:15;21.10;99.90
16301;DHT22;8258;51.020;4.248;2023-09-19T09:08:44;20.70;99.90
16301;DHT22;8258;51.020;4.248;2023-09-19T09:11:11;20.20;99.90
16301;DHT22;8258;51.020;4.248;2023-09-19T09:13:39;20.30;99.90
16301;DHT22;8258;51.020;4.248;2023-09-19T09:16:07;20.30;99.90
16301;DHT22;8258;51.020;4.248;2023-09-19T09:18:35;20.20;99.90
16301;DHT22;8258;51.020;4.248;2023-09-19T09:21:02;20.30;99.90
16301;DHT22;8258;51.020;4.248;2023-09-19T09:23:32;20.60;99.90
16301;DHT22;8258;51.020;4.248;2023-09-19T09:25:59;20.70;99.90
16301;DHT22;8258;51.020;4.248;2023-09-19T09:28:29;21.00;99.90
16301;DHT22;8258;51.020;4.248;2023-09-19T09:30:57;21.00;99.90
16301;DHT22;8258;51.020;4.248;2023-09-19T09:33:25;20.60;99.90
16301;DHT22;8258;51.020;4.248;2023-09-19T09:35:53;20.40;99.90
16301;DHT22;8258;51.020;4.248;2023-09-19T09:38:22;20.60;99.90
16301;DHT22;8258;51.020;4.248;2023-09-19T09:40:55;20.80;99.90
16301;DHT22;8258;51.020;4.248;2023-09-19T09:43:29;20.00;99.90
16301;DHT22;8258;51.020;4.248;2023-09-19T09:46:14;19.90;99.90
16301;DHT22;8258;51.020;4.248;2023-09-19T09:49:00;20.00;99.90
16301;DHT22;8258;51.020;4.248;2023-09-19T09:51:46;20.10;99.90
16301;DHT22;8258;51.020;4.248;2023-09-19T09:54:23;20.20;99.90
16301;DHT22;8258;51.020;4.248;2023-09-19T09:56:56;20.60;99.90
16301;DHT22;8258;51.020;4.248;2023-09-19T09:59:47;21.10;99.90
16301;DHT22;8258;51.020;4.248;2023-09-19T10:02:16;21.50;99.90
16301;DHT22;8258;51.020;4.248;2023-09-19T10:04:49;22.40;99.90
16301;DHT22;8258;51.020;4.248;2023-09-19T10:07:28;23.30;99.90
16301;DHT22;8258;51.020;4.248;2023-09-19T10:09:59;23.00;99.90
16301;DHT22;8258;51.020;4.248;2023-09-19T10:12:40;22.40;99.90
16301;DHT22;8258;51.020;4.248;2023-09-19T10:15:10;22.80;99.90
16301;DHT22;8258;51.020;4.248;2023-09-19T10:17:43;22.60;99.90
16301;DHT22;8258;51.020;4.248;2023-09-19T10:20:12;22.50;99.90
16301;DHT22;8258;51.020;4.248;2023-09-19T10:22:53;22.80;99.90
16301;DHT22;8258;51.020;4.248;2023-09-19T10:25:27;23.20;99.90
16301;DHT22;8258;51.020;4.248;2023-09-19T10:27:59;23.40;99.90
16301;DHT22;8258;51.020;4.248;2023-09-19T10:30:29;24.00;99.90
16301;DHT22;8258;51.020;4.248;2023-09-19T10:33:01;23.60;99.90
16301;DHT22;8258;51.020;4.248;2023-09-19T10:35:28;22.90;99.90
16301;DHT22;8258;51.020;4.248;2023-09-19T10:37:59;23.20;99.90
16301;DHT22;8258;51.020;4.248;2023-09-19T10:40:27;23.60;99.90
16301;DHT22;8258;51.020;4.248;2023-09-19T10:43:02;23.60;99.90
16301;DHT22;8258;51.020;4.248;2023-09-19T10:45:31;23.80;99.90
16301;DHT22;8258;51.020;4.248;2023-09-19T10:47:58;24.40;99.90
16301;DHT22;8258;51.020;4.248;2023-09-19T10:50:27;24.40;99.90
16301;DHT22;8258;51.020;4.248;2023-09-19T10:53:00;24.70;99.90
16301;DHT22;8258;51.020;4.248;2023-09-19T10:55:31;24.10;99.90
16301;DHT22;8258;51.020;4.248;2023-09-19T10:58:00;24.80;99.90
16301;DHT22;8258;51.020;4.248;2023-09-19T11:00:30;25.40;99.90
16301;DHT22;8258;51.020;4.248;2023-09-19T11:03:20;25.90;99.90
16301;DHT22;8258;51.020;4.248;2023-09-19T11:06:10;25.20;99.90
16301;DHT22;8258;51.020;4.248;2023-09-19T11:08:56;25.10;99.90
16301;DHT22;8258;51.020;4.248;2023-09-19T11:11:42;25.20;99.90
16301;DHT22;8258;51.020;4.248;2023-09-19T11:14:29;24.50;99.90
16301;DHT22;8258;51.020;4.248;2023-09-19T11:20:24;24.30;99.90
16301;DHT22;8258;51.020;4.248;2023-09-19T11:23:21;24.00;99.90
16301;DHT22;8258;51.020;4.248;2023-09-19T11:25:52;24.20;99.90
16301;DHT22;8258;51.020;4.248;2023-09-19T11:28:30;23.70;99.90
16301;DHT22;8258;51.020;4.248;2023-09-19T11:30:59;24.10;99.90
16301;DHT22;8258;51.020;4.248;2023-09-19T11:33:46;24.40;99.90
16301;DHT22;8258;51.020;4.248;2023-09-19T11:36:15;24.20;99.90
16301;DHT22;8258;51.020;4.248;2023-09-19T11:39:00;24.20;99.90
16301;DHT22;8258;51.020;4.248;2023-09-19T11:41:40;24.40;99.90
16301;DHT22;8258;51.020;4.248;2023-09-19T11:44:32;24.60;99.90
16301;DHT22;8258;51.020;4.248;2023-09-19T11:47:06;24.10;99.90
16301;DHT22;8258;51.020;4.248;2023-09-19T11:49:34;24.00;99.90
16301;DHT22;8258;51.020;4.248;2023-09-19T11:52:03;23.20;99.90
16301;DHT22;8258;51.020;4.248;2023-09-19T11:54:32;22.50;99.90
16301;DHT22;8258;51.020;4.248;2023-09-19T11:57:00;21.90;99.90
16301;DHT22;8258;51.020;4.248;2023-09-19T11:59:29;21.80;99.90
16301;DHT22;8258;51.020;4.248;2023-09-19T12:01:57;22.80;99.90
16301;DHT22;8258;51.020;4.248;2023-09-19T12:04:37;23.00;99.90
16301;DHT22;8258;51.020;4.248;2023-09-19T12:07:08;22.80;99.90
16301;DHT22;8258;51.020;4.248;2023-09-19T12:09:41;22.60;99.90
16301;DHT22;8258;51.020;4.248;2023-09-19T12:12:10;22.50;99.90
16301;DHT22;8258;51.020;4.248;2023-09-19T12:14:39;22.50;99.90
16301;DHT22;8258;51.020;4.248;2023-09-19T12:17:08;22.30;99.90
16301;DHT22;8258;51.020;4.248;2023-09-19T12:19:37;22.30;99.90
16301;DHT22;8258;51.020;4.248;2023-09-19T12:22:04;23.00;99.90
16301;DHT22;8258;51.020;4.248;2023-09-19T12:24:31;23.10;99.90
16301;DHT22;8258;51.020;4.248;2023-09-19T12:27:03;23.60;99.90
16301;DHT22;8258;51.020;4.248;2023-09-19T12:29:31;23.70;99.90
16301;DHT22;8258;51.020;4.248;2023-09-19T12:32:00;22.70;99.90
16301;DHT22;8258;51.020;4.248;2023-09-19T12:34:30;22.80;99.90
16301;DHT22;8258;51.020;4.248;2023-09-19T12:37:14;23.00;99.90
16301;DHT22;8258;51.020;4.248;2023-09-19T12:39:47;22.80;99.90
16301;DHT22;8258;51.020;4.248;2023-09-19T12:42:17;22.50;99.90
16301;DHT22;8258;51.020;4.248;2023-09-19T12:44:45;22.20;99.90
16301;DHT22;8258;51.020;4.248;2023-09-19T12:47:14;22.00;99.90
16301;DHT22;8258;51.020;4.248;2023-09-19T12:50:08;22.20;99.90
16301;DHT22;8258;51.020;4.248;2023-09-19T12:52:41;22.60;99.90
16301;DHT22;8258;51.020;4.248;2023-09-19T12:55:19;22.60;99.90
16301;DHT22;8258;51.020;4.248;2023-09-19T12:57:58;22.20;99.90
16301;DHT22;8258;51.020;4.248;2023-09-19T13:00:32;21.80;99.90
16301;DHT22;8258;51.020;4.248;2023-09-19T13:03:16;21.70;99.90
16301;DHT22;8258;51.020;4.248;2023-09-19T13:05:50;21.60;99.90
16301;DHT22;8258;51.020;4.248;2023-09-19T13:08:24;21.40;99.90
16301;DHT22;8258;51.020;4.248;2023-09-19T13:11:04;21.40;99.90
16301;DHT22;8258;51.020;4.248;2023-09-19T13:13:36;21.30;99.90
16301;DHT22;8258;51.020;4.248;2023-09-19T13:16:03;21.20;99.90
16301;DHT22;8258;51.020;4.248;2023-09-19T13:18:42;21.30;99.90
16301;DHT22;8258;51.020;4.248;2023-09-19T13:21:10;21.30;99.90
16301;DHT22;8258;51.020;4.248;2023-09-19T13:23:42;21.20;99.90
16301;DHT22;8258;51.020;4.248;2023-09-19T13:26:10;21.20;99.90
16301;DHT22;8258;51.020;4.248;2023-09-19T13:28:38;21.30;99.90
16301;DHT22;8258;51.020;4.248;2023-09-19T13:31:05;21.30;99.90
16301;DHT22;8258;51.020;4.248;2023-09-19T13:33:33;21.40;99.90
16301;DHT22;8258;51.020;4.248;2023-09-19T13:36:01;21.50;99.90
16301;DHT22;8258;51.020;4.248;2023-09-19T13:38:28;21.50;99.90
16301;DHT22;8258;51.020;4.248;2023-09-19T13:40:56;21.70;99.90
16301;DHT22;8258;51.020;4.248;2023-09-19T13:43:25;22.00;99.90
16301;DHT22;8258;51.020;4.248;2023-09-19T13:45:52;22.00;99.90
16301;DHT22;8258;51.020;4.248;2023-09-19T13:48:19;22.10;99.90
16301;DHT22;8258;51.020;4.248;2023-09-19T13:50:48;22.00;99.90
16301;DHT22;8258;51.020;4.248;2023-09-19T13:53:15;22.00;99.90
16301;DHT22;8258;51.020;4.248;2023-09-19T13:55:42;22.20;99.90
16301;DHT22;8258;51.020;4.248;2023-09-19T13:58:11;22.70;99.90
16301;DHT22;8258;51.020;4.248;2023-09-19T14:00:38;23.20;99.90
16301;DHT22;8258;51.020;4.248;2023-09-19T14:03:05;23.10;99.90
16301;DHT22;8258;51.020;4.248;2023-09-19T14:05:32;22.70;99.90
16301;DHT22;8258;51.020;4.248;2023-09-19T14:07:59;22.70;99.90
16301;DHT22;8258;51.020;4.248;2023-09-19T14:10:28;22.50;99.90
16301;DHT22;8258;51.020;4.248;2023-09-19T14:12:57;21.90;99.90
16301;DHT22;8258;51.020;4.248;2023-09-19T14:15:26;22.60;99.90
16301;DHT22;8258;51.020;4.248;2023-09-19T14:17:56;24.10;99.90
16301;DHT22;8258;51.020;4.248;2023-09-19T14:20:25;23.80;99.90
16301;DHT22;8258;51.020;4.248;2023-09-19T14:22:53;23.00;99.90
16301;DHT22;8258;51.020;4.248;2023-09-19T14:25:20;23.10;99.90
16301;DHT22;8258;51.020;4.248;2023-09-19T14:27:47;22.80;99.90
16301;DHT22;8258;51.020;4.248;2023-09-19T14:30:15;22.10;99.90
16301;DHT22;8258;51.020;4.248;2023-09-19T14:32:43;21.90;99.90
16301;DHT22;8258;51.020;4.248;2023-09-19T14:35:10;21.70;99.90
16301;DHT22;8258;51.020;4.248;2023-09-19T14:37:40;21.50;99.90
16301;DHT22;8258;51.020;4.248;2023-09-19T14:40:08;21.20;99.90
16301;DHT22;8258;51.020;4.248;2023-09-19T14:42:39;21.10;99.90
16301;DHT22;8258;51.020;4.248;2023-09-19T14:45:06;21.10;99.90
16301;DHT22;8258;51.020;4.248;2023-09-19T14:47:34;21.00;99.90
16301;DHT22;8258;51.020;4.248;2023-09-19T14:50:05;20.80;99.90
16301;DHT22;8258;51.020;4.248;2023-09-19T14:52:33;20.70;99.90
16301;DHT22;8258;51.020;4.248;2023-09-19T14:55:01;20.60;99.90
16301;DHT22;8258;51.020;4.248;2023-09-19T14:57:30;20.60;99.90
16301;DHT22;8258;51.020;4.248;2023-09-19T14:59:57;20.50;99.90
16301;DHT22;8258;51.020;4.248;2023-09-19T15:02:25;20.40;99.90
16301;DHT22;8258;51.020;4.248;2023-09-19T15:04:52;20.30;99.90
16301;DHT22;8258;51.020;4.248;2023-09-19T15:07:21;20.30;99.90
16301;DHT22;8258;51.020;4.248;2023-09-19T15:09:48;20.20;99.90
16301;DHT22;8258;51.020;4.248;2023-09-19T15:12:14;20.20;99.90
16301;DHT22;8258;51.020;4.248;2023-09-19T15:14:42;20.10;99.90
16301;DHT22;8258;51.020;4.248;2023-09-19T15:17:09;20.00;99.90
16301;DHT22;8258;51.020;4.248;2023-09-19T15:19:36;20.00;99.90
16301;DHT22;8258;51.020;4.248;2023-09-19T15:22:04;20.00;99.90
16301;DHT22;8258;51.020;4.248;2023-09-19T15:24:34;20.00;99.90
16301;DHT22;8258;51.020;4.248;2023-09-19T15:27:00;20.00;99.90
16301;DHT22;8258;51.020;4.248;2023-09-19T15:29:28;19.90;99.90
16301;DHT22;8258;51.020;4.248;2023-09-19T15:31:55;19.80;99.90
16301;DHT22;8258;51.020;4.248;2023-09-19T15:34:24;19.80;99.90
16301;DHT22;8258;51.020;4.248;2023-09-19T15:36:51;19.80;99.90
16301;DHT22;8258;51.020;4.248;2023-09-19T15:39:18;19.80;99.90
16301;DHT22;8258;51.020;4.248;2023-09-19T15:41:49;19.80;99.90
16301;DHT22;8258;51.020;4.248;2023-09-19T15:44:18;19.80;99.90
16301;DHT22;8258;51.020;4.248;2023-09-19T15:46:46;19.90;99.90
16301;DHT22;8258;51.020;4.248;2023-09-19T15:49:14;19.80;99.90
16301;DHT22;8258;51.020;4.248;2023-09-19T15:51:41;19.80;99.90
16301;DHT22;8258;51.020;4.248;2023-09-19T15:54:10;19.70;99.90
16301;DHT22;8258;51.020;4.248;2023-09-19T15:56:39;19.60;99.90
16301;DHT22;8258;51.020;4.248;2023-09-19T15:59:09;19.70;99.90
16301;DHT22;8258;51.020;4.248;2023-09-19T16:01:38;19.70;99.90
16301;DHT22;8258;51.020;4.248;2023-09-19T16:04:06;19.60;99.90
16301;DHT22;8258;51.020;4.248;2023-09-19T16:06:35;19.60;99.90